sensor_id;sensor_type;location;lat;lon;timestamp;pressure;altitude;pressure_sealevel;temperature;humidity
77702;BME280;66868;42.708;23.404;2023-05-10T00:01:23;95467.50;;;11.37;90.37
77702;BME280;66868;42.708;23.404;2023-05-10T00:03:48;95472.47;;;11.38;90.59
77702;BME280;66868;42.708;23.404;2023-05-10T00:06:13;95468.06;;;11.42;90.02
77702;BME280;66868;42.708;23.404;2023-05-10T00:08:39;95470.50;;;11.43;90.61
77702;BME280;66868;42.708;23.404;2023-05-10T00:11:04;95468.22;;;11.39;89.88
77702;BME280;66868;42.708;23.404;2023-05-10T00:13:30;95426.09;;;11.22;90.43
77702;BME280;66868;42.708;23.404;2023-05-10T00:15:55;95437.03;;;11.23;89.58
77702;BME280;66868;42.708;23.404;2023-05-10T00:18:21;95459.72;;;11.40;91.18
77702;BME280;66868;42.708;23.404;2023-05-10T00:20:46;95454.84;;;11.37;90.18
77702;BME280;66868;42.708;23.404;2023-05-10T00:23:12;95429.25;;;11.26;90.18
77702;BME280;66868;42.708;23.404;2023-05-10T00:25:37;95454.28;;;11.32;90.21
77702;BME280;66868;42.708;23.404;2023-05-10T00:28:03;95441.28;;;11.22;90.91
77702;BME280;66868;42.708;23.404;2023-05-10T00:30:28;95450.09;;;11.31;90.05
77702;BME280;66868;42.708;23.404;2023-05-10T00:32:53;95451.19;;;11.27;89.60
77702;BME280;66868;42.708;23.404;2023-05-10T00:35:19;95456.97;;;11.29;89.81
77702;BME280;66868;42.708;23.404;2023-05-10T00:37:44;95459.13;;;11.21;89.79
77702;BME280;66868;42.708;23.404;2023-05-10T00:40:10;95451.44;;;11.22;89.49
77702;BME280;66868;42.708;23.404;2023-05-10T00:42:36;95447.50;;;11.17;89.18
77702;BME280;66868;42.708;23.404;2023-05-10T00:45:01;95426.47;;;11.00;89.55
77702;BME280;66868;42.708;23.404;2023-05-10T00:47:27;95431.69;;;10.97;89.65
77702;BME280;66868;42.708;23.404;2023-05-10T00:49:52;95418.47;;;10.92;90.45
77702;BME280;66868;42.708;23.404;2023-05-10T00:52:18;95412.75;;;10.89;90.82
77702;BME280;66868;42.708;23.404;2023-05-10T00:54:44;95439.84;;;11.02;89.96
77702;BME280;66868;42.708;23.404;2023-05-10T00:57:10;95439.59;;;11.07;90.87
77702;BME280;66868;42.708;23.404;2023-05-10T00:59:36;95420.91;;;10.94;89.05
77702;BME280;66868;42.708;23.404;2023-05-10T01:02:01;95438.41;;;10.98;90.30
77702;BME280;66868;42.708;23.404;2023-05-10T01:04:27;95356.28;;;10.41;90.20
77702;BME280;66868;42.708;23.404;2023-05-10T01:06:53;95436.38;;;10.89;90.64
77702;BME280;66868;42.708;23.404;2023-05-10T01:09:20;95411.16;;;10.72;90.06
77702;BME280;66868;42.708;23.404;2023-05-10T01:11:46;95434.16;;;10.83;91.27
77702;BME280;66868;42.708;23.404;2023-05-10T01:14:13;95429.44;;;10.77;91.00
77702;BME280;66868;42.708;23.404;2023-05-10T01:16:40;95426.16;;;10.75;91.37
77702;BME280;66868;42.708;23.404;2023-05-10T01:19:26;95432.13;;;10.74;91.32
77702;BME280;66868;42.708;23.404;2023-05-10T01:22:02;95429.59;;;10.74;90.72
77702;BME280;66868;42.708;23.404;2023-05-10T01:25:25;95425.53;;;10.72;90.63
77702;BME280;66868;42.708;23.404;2023-05-10T01:33:26;95419.81;;;10.68;90.87
77702;BME280;66868;42.708;23.404;2023-05-10T01:36:21;95400.72;;;10.62;90.06
77702;BME280;66868;42.708;23.404;2023-05-10T01:39:13;95397.44;;;10.60;89.89
77702;BME280;66868;42.708;23.404;2023-05-10T01:44:24;95379.22;;;10.38;89.36
77702;BME280;66868;42.708;23.404;2023-05-10T01:47:16;95413.44;;;10.61;89.52
77702;BME280;66868;42.708;23.404;2023-05-10T01:49:54;95391.47;;;10.46;89.04
77702;BME280;66868;42.708;23.404;2023-05-10T01:52:26;95389.28;;;10.40;89.92
77702;BME280;66868;42.708;23.404;2023-05-10T01:55:15;95407.22;;;10.51;89.50
77702;BME280;66868;42.708;23.404;2023-05-10T01:57:43;95390.25;;;10.37;88.70
77702;BME280;66868;42.708;23.404;2023-05-10T02:00:10;95410.81;;;10.47;88.68
77702;BME280;66868;42.708;23.404;2023-05-10T02:02:40;95412.53;;;10.46;89.25
77702;BME280;66868;42.708;23.404;2023-05-10T02:05:08;95411.00;;;10.44;89.68
77702;BME280;66868;42.708;23.404;2023-05-10T02:07:36;95418.00;;;10.39;88.24
77702;BME280;66868;42.708;23.404;2023-05-10T02:10:06;95420.63;;;10.37;88.46
77702;BME280;66868;42.708;23.404;2023-05-10T02:12:35;95425.69;;;10.37;88.51
77702;BME280;66868;42.708;23.404;2023-05-10T02:15:02;95413.28;;;10.33;89.17
77702;BME280;66868;42.708;23.404;2023-05-10T02:17:30;95409.34;;;10.27;87.77
77702;BME280;66868;42.708;23.404;2023-05-10T02:19:58;95417.91;;;10.25;86.69
77702;BME280;66868;42.708;23.404;2023-05-10T02:22:26;95418.09;;;10.22;87.35
77702;BME280;66868;42.708;23.404;2023-05-10T02:24:53;95398.69;;;10.05;86.81
77702;BME280;66868;42.708;23.404;2023-05-10T02:27:19;95419.44;;;10.11;87.11
77702;BME280;66868;42.708;23.404;2023-05-10T02:29:46;95416.16;;;10.09;86.51
77702;BME280;66868;42.708;23.404;2023-05-10T02:32:12;95407.81;;;9.92;84.84
77702;BME280;66868;42.708;23.404;2023-05-10T02:34:38;95398.81;;;9.86;84.56
77702;BME280;66868;42.708;23.404;2023-05-10T02:37:04;95419.63;;;9.91;83.90
77702;BME280;66868;42.708;23.404;2023-05-10T02:39:32;95407.91;;;9.73;82.25
77702;BME280;66868;42.708;23.404;2023-05-10T02:41:58;95412.63;;;9.63;82.29
77702;BME280;66868;42.708;23.404;2023-05-10T02:44:26;95397.25;;;9.51;82.62
77702;BME280;66868;42.708;23.404;2023-05-10T02:46:52;95417.47;;;9.51;81.49
77702;BME280;66868;42.708;23.404;2023-05-10T02:49:18;95416.94;;;9.44;81.36
77702;BME280;66868;42.708;23.404;2023-05-10T02:51:49;95414.63;;;9.40;82.01
77702;BME280;66868;42.708;23.404;2023-05-10T02:54:20;95393.84;;;9.17;82.38
77702;BME280;66868;42.708;23.404;2023-05-10T02:56:51;95416.91;;;9.28;83.15
77702;BME280;66868;42.708;23.404;2023-05-10T02:59:17;95413.78;;;9.23;83.95
77702;BME280;66868;42.708;23.404;2023-05-10T03:01:42;95405.97;;;9.28;83.79
77702;BME280;66868;42.708;23.404;2023-05-10T03:04:07;95390.38;;;9.20;83.92
77702;BME280;66868;42.708;23.404;2023-05-10T03:06:33;95405.88;;;9.29;83.55
77702;BME280;66868;42.708;23.404;2023-05-10T03:08:59;95416.72;;;9.31;83.43
77702;BME280;66868;42.708;23.404;2023-05-10T03:11:36;95417.50;;;9.34;82.73
77702;BME280;66868;42.708;23.404;2023-05-10T03:17:08;95418.50;;;9.29;82.81
77702;BME280;66868;42.708;23.404;2023-05-10T03:19:48;95430.13;;;9.34;82.80
77702;BME280;66868;42.708;23.404;2023-05-10T03:22:23;95425.19;;;9.30;82.94
77702;BME280;66868;42.708;23.404;2023-05-10T03:24:53;95398.41;;;9.11;83.18
77702;BME280;66868;42.708;23.404;2023-05-10T03:27:21;95432.28;;;9.24;83.39
77702;BME280;66868;42.708;23.404;2023-05-10T03:29:47;95426.31;;;9.25;83.79
77702;BME280;66868;42.708;23.404;2023-05-10T03:32:13;95418.38;;;9.15;83.67
77702;BME280;66868;42.708;23.404;2023-05-10T03:34:42;95421.13;;;9.28;83.73
77702;BME280;66868;42.708;23.404;2023-05-10T03:37:08;95426.25;;;9.26;83.16
77702;BME280;66868;42.708;23.404;2023-05-10T03:39:34;95429.59;;;9.27;83.54
77702;BME280;66868;42.708;23.404;2023-05-10T03:41:59;95404.25;;;9.11;83.21
77702;BME280;66868;42.708;23.404;2023-05-10T03:44:25;95429.88;;;9.21;83.49
77702;BME280;66868;42.708;23.404;2023-05-10T03:46:50;95415.63;;;9.20;83.30
77702;BME280;66868;42.708;23.404;2023-05-10T03:49:15;95419.31;;;9.30;82.49
77702;BME280;66868;42.708;23.404;2023-05-10T03:51:41;95430.56;;;9.24;82.38
77702;BME280;66868;42.708;23.404;2023-05-10T03:54:06;95437.97;;;9.27;82.22
77702;BME280;66868;42.708;23.404;2023-05-10T03:56:31;95429.88;;;9.21;81.95
77702;BME280;66868;42.708;23.404;2023-05-10T03:58:57;95434.91;;;9.21;81.45
77702;BME280;66868;42.708;23.404;2023-05-10T04:01:23;95441.34;;;9.28;81.30
77702;BME280;66868;42.708;23.404;2023-05-10T04:03:48;95436.56;;;9.22;81.25
77702;BME280;66868;42.708;23.404;2023-05-10T04:06:14;95426.19;;;9.11;81.48
77702;BME280;66868;42.708;23.404;2023-05-10T04:08:39;95445.56;;;9.27;81.81
77702;BME280;66868;42.708;23.404;2023-05-10T04:11:06;95448.81;;;9.29;81.28
77702;BME280;66868;42.708;23.404;2023-05-10T04:13:32;95435.47;;;9.27;80.54
77702;BME280;66868;42.708;23.404;2023-05-10T04:15:57;95450.00;;;9.40;80.70
77702;BME280;66868;42.708;23.404;2023-05-10T04:18:23;95450.72;;;9.43;79.72
77702;BME280;66868;42.708;23.404;2023-05-10T04:20:48;95422.81;;;9.27;79.81
77702;BME280;66868;42.708;23.404;2023-05-10T04:23:13;95454.78;;;9.46;79.15
77702;BME280;66868;42.708;23.404;2023-05-10T04:25:40;95449.06;;;9.42;79.35
77702;BME280;66868;42.708;23.404;2023-05-10T04:28:05;95450.91;;;9.56;79.15
77702;BME280;66868;42.708;23.404;2023-05-10T04:30:31;95441.91;;;9.50;78.35
77702;BME280;66868;42.708;23.404;2023-05-10T04:32:57;95431.88;;;9.49;78.67
77702;BME280;66868;42.708;23.404;2023-05-10T04:35:22;95461.28;;;9.67;79.15
77702;BME280;66868;42.708;23.404;2023-05-10T04:37:47;95467.94;;;9.69;79.36
77702;BME280;66868;42.708;23.404;2023-05-10T04:40:13;95463.53;;;9.73;79.49
77702;BME280;66868;42.708;23.404;2023-05-10T04:42:40;95456.69;;;9.75;79.07
77702;BME280;66868;42.708;23.404;2023-05-10T04:45:06;95451.66;;;9.75;78.41
77702;BME280;66868;42.708;23.404;2023-05-10T04:47:32;95454.00;;;9.78;78.22
77702;BME280;66868;42.708;23.404;2023-05-10T04:49:58;95455.56;;;9.81;78.02
77702;BME280;66868;42.708;23.404;2023-05-10T04:52:23;95459.50;;;9.86;78.16
77702;BME280;66868;42.708;23.404;2023-05-10T04:54:49;95458.38;;;9.92;78.21
77702;BME280;66868;42.708;23.404;2023-05-10T04:57:14;95461.25;;;10.01;78.09
77702;BME280;66868;42.708;23.404;2023-05-10T04:59:39;95456.19;;;10.01;78.05
77702;BME280;66868;42.708;23.404;2023-05-10T05:02:05;95389.63;;;9.68;77.71
77702;BME280;66868;42.708;23.404;2023-05-10T05:04:30;95462.13;;;10.17;78.21
77702;BME280;66868;42.708;23.404;2023-05-10T05:06:56;95452.59;;;10.23;77.23
77702;BME280;66868;42.708;23.404;2023-05-10T05:09:22;95460.88;;;10.26;77.13
77702;BME280;66868;42.708;23.404;2023-05-10T05:11:47;95465.69;;;10.31;77.14
77702;BME280;66868;42.708;23.404;2023-05-10T05:14:13;95448.22;;;10.26;76.94
77702;BME280;66868;42.708;23.404;2023-05-10T05:16:38;95463.41;;;10.42;77.30
77702;BME280;66868;42.708;23.404;2023-05-10T05:19:04;95438.75;;;10.30;76.65
77702;BME280;66868;42.708;23.404;2023-05-10T05:21:30;95464.78;;;10.47;76.39
77702;BME280;66868;42.708;23.404;2023-05-10T05:23:57;95445.78;;;10.40;75.77
77702;BME280;66868;42.708;23.404;2023-05-10T05:26:22;95448.06;;;10.45;75.59
77702;BME280;66868;42.708;23.404;2023-05-10T05:28:48;95471.41;;;10.66;76.48
77702;BME280;66868;42.708;23.404;2023-05-10T05:31:15;95454.25;;;10.55;75.56
77702;BME280;66868;42.708;23.404;2023-05-10T05:33:40;95474.03;;;10.64;76.12
77702;BME280;66868;42.708;23.404;2023-05-10T05:36:06;95475.59;;;10.67;76.14
77702;BME280;66868;42.708;23.404;2023-05-10T05:38:31;95462.66;;;10.55;75.59
77702;BME280;66868;42.708;23.404;2023-05-10T05:40:57;95468.97;;;10.64;75.28
77702;BME280;66868;42.708;23.404;2023-05-10T05:43:22;95471.25;;;10.69;75.90
77702;BME280;66868;42.708;23.404;2023-05-10T05:45:48;95456.53;;;10.59;75.74
77702;BME280;66868;42.708;23.404;2023-05-10T05:48:13;95467.69;;;10.73;76.07
77702;BME280;66868;42.708;23.404;2023-05-10T05:50:39;95482.38;;;10.82;76.27
77702;BME280;66868;42.708;23.404;2023-05-10T05:53:04;95487.19;;;10.86;75.62
77702;BME280;66868;42.708;23.404;2023-05-10T05:55:29;95491.19;;;10.90;76.46
77702;BME280;66868;42.708;23.404;2023-05-10T05:57:57;95487.75;;;10.91;76.28
77702;BME280;66868;42.708;23.404;2023-05-10T06:00:22;95479.91;;;10.80;75.89
77702;BME280;66868;42.708;23.404;2023-05-10T06:02:48;95482.84;;;11.04;76.01
77702;BME280;66868;42.708;23.404;2023-05-10T06:05:13;95488.56;;;11.07;75.44
77702;BME280;66868;42.708;23.404;2023-05-10T06:07:39;95486.03;;;11.07;75.77
77702;BME280;66868;42.708;23.404;2023-05-10T06:10:07;95476.16;;;11.03;75.93
77702;BME280;66868;42.708;23.404;2023-05-10T06:12:33;95498.03;;;11.20;75.32
77702;BME280;66868;42.708;23.404;2023-05-10T06:14:59;95495.09;;;11.12;75.02
77702;BME280;66868;42.708;23.404;2023-05-10T06:17:24;95495.72;;;11.15;75.18
77702;BME280;66868;42.708;23.404;2023-05-10T06:19:50;95477.84;;;11.02;75.30
77702;BME280;66868;42.708;23.404;2023-05-10T06:22:15;95497.81;;;11.08;74.98
77702;BME280;66868;42.708;23.404;2023-05-10T06:24:41;95491.03;;;10.93;76.13
77702;BME280;66868;42.708;23.404;2023-05-10T06:27:06;95493.56;;;10.93;75.90
77702;BME280;66868;42.708;23.404;2023-05-10T06:29:32;95492.66;;;10.94;75.04
77702;BME280;66868;42.708;23.404;2023-05-10T06:31:57;95498.78;;;11.06;75.06
77702;BME280;66868;42.708;23.404;2023-05-10T06:34:23;95495.78;;;10.99;75.40
77702;BME280;66868;42.708;23.404;2023-05-10T06:36:49;95500.91;;;11.14;74.60
77702;BME280;66868;42.708;23.404;2023-05-10T06:39:14;95515.94;;;11.17;75.71
77702;BME280;66868;42.708;23.404;2023-05-10T06:41:40;95504.53;;;11.24;74.78
77702;BME280;66868;42.708;23.404;2023-05-10T06:44:05;95498.69;;;11.23;75.19
77702;BME280;66868;42.708;23.404;2023-05-10T06:46:31;95500.59;;;11.34;74.82
77702;BME280;66868;42.708;23.404;2023-05-10T06:48:56;95499.03;;;11.47;74.47
77702;BME280;66868;42.708;23.404;2023-05-10T06:51:21;95492.72;;;11.54;73.17
77702;BME280;66868;42.708;23.404;2023-05-10T06:53:47;95474.94;;;11.40;73.76
77702;BME280;66868;42.708;23.404;2023-05-10T06:56:12;95500.00;;;11.60;73.18
77702;BME280;66868;42.708;23.404;2023-05-10T06:58:38;95507.25;;;11.66;73.91
77702;BME280;66868;42.708;23.404;2023-05-10T07:01:04;95501.91;;;11.71;73.90
77702;BME280;66868;42.708;23.404;2023-05-10T07:03:30;95507.50;;;11.77;73.09
77702;BME280;66868;42.708;23.404;2023-05-10T07:06:00;95503.25;;;11.78;71.42
77702;BME280;66868;42.708;23.404;2023-05-10T07:08:28;95500.19;;;11.71;73.02
77702;BME280;66868;42.708;23.404;2023-05-10T07:11:07;95503.94;;;11.80;73.67
77702;BME280;66868;42.708;23.404;2023-05-10T07:13:33;95510.66;;;11.81;72.31
77702;BME280;66868;42.708;23.404;2023-05-10T07:15:59;95515.22;;;11.90;71.91
77702;BME280;66868;42.708;23.404;2023-05-10T07:18:25;95498.53;;;11.86;72.22
77702;BME280;66868;42.708;23.404;2023-05-10T07:20:50;95511.16;;;12.02;72.37
77702;BME280;66868;42.708;23.404;2023-05-10T07:23:16;95509.53;;;12.15;72.68
77702;BME280;66868;42.708;23.404;2023-05-10T07:25:47;95507.44;;;12.21;71.69
77702;BME280;66868;42.708;23.404;2023-05-10T07:28:14;95516.00;;;12.34;71.17
77702;BME280;66868;42.708;23.404;2023-05-10T07:30:41;95513.53;;;12.47;71.31
77702;BME280;66868;42.708;23.404;2023-05-10T07:33:08;95471.09;;;12.35;70.86
77702;BME280;66868;42.708;23.404;2023-05-10T07:35:34;95497.03;;;12.40;69.90
77702;BME280;66868;42.708;23.404;2023-05-10T07:37:59;95524.25;;;12.52;68.74
77702;BME280;66868;42.708;23.404;2023-05-10T07:40:25;95518.78;;;12.44;68.84
77702;BME280;66868;42.708;23.404;2023-05-10T07:42:50;95507.56;;;12.20;69.86
77702;BME280;66868;42.708;23.404;2023-05-10T07:45:16;95525.50;;;12.31;69.22
77702;BME280;66868;42.708;23.404;2023-05-10T07:47:41;95530.75;;;12.28;70.16
77702;BME280;66868;42.708;23.404;2023-05-10T07:50:07;95532.75;;;12.23;68.94
77702;BME280;66868;42.708;23.404;2023-05-10T07:52:33;95525.06;;;12.24;69.55
77702;BME280;66868;42.708;23.404;2023-05-10T07:54:58;95496.59;;;12.19;69.89
77702;BME280;66868;42.708;23.404;2023-05-10T07:57:23;95523.69;;;12.47;69.82
77702;BME280;66868;42.708;23.404;2023-05-10T07:59:49;95520.06;;;12.51;69.79
77702;BME280;66868;42.708;23.404;2023-05-10T08:02:14;95524.69;;;12.59;70.20
77702;BME280;66868;42.708;23.404;2023-05-10T08:04:40;95530.50;;;12.61;69.86
77702;BME280;66868;42.708;23.404;2023-05-10T08:07:05;95525.84;;;12.67;68.40
77702;BME280;66868;42.708;23.404;2023-05-10T08:09:30;95471.00;;;12.22;68.58
77702;BME280;66868;42.708;23.404;2023-05-10T08:11:56;95533.03;;;12.61;68.79
77702;BME280;66868;42.708;23.404;2023-05-10T08:14:21;95537.31;;;12.60;69.07
77702;BME280;66868;42.708;23.404;2023-05-10T08:16:47;95536.00;;;12.53;69.87
77702;BME280;66868;42.708;23.404;2023-05-10T08:19:12;95533.13;;;12.59;69.88
77702;BME280;66868;42.708;23.404;2023-05-10T08:21:38;95524.88;;;12.56;68.31
77702;BME280;66868;42.708;23.404;2023-05-10T08:24:03;95526.59;;;12.69;68.56
77702;BME280;66868;42.708;23.404;2023-05-10T08:26:29;95529.19;;;12.82;67.89
77702;BME280;66868;42.708;23.404;2023-05-10T08:28:54;95538.91;;;12.90;67.88
77702;BME280;66868;42.708;23.404;2023-05-10T08:31:20;95510.78;;;12.78;68.17
77702;BME280;66868;42.708;23.404;2023-05-10T08:33:45;95526.34;;;13.01;67.58
77702;BME280;66868;42.708;23.404;2023-05-10T08:36:11;95534.59;;;13.04;67.54
77702;BME280;66868;42.708;23.404;2023-05-10T08:38:37;95511.66;;;12.92;67.08
77702;BME280;66868;42.708;23.404;2023-05-10T08:41:03;95532.25;;;13.01;67.17
77702;BME280;66868;42.708;23.404;2023-05-10T08:43:29;95493.91;;;12.77;67.46
77702;BME280;66868;42.708;23.404;2023-05-10T08:45:55;95539.44;;;12.95;67.72
77702;BME280;66868;42.708;23.404;2023-05-10T08:48:23;95541.53;;;12.88;68.26
77702;BME280;66868;42.708;23.404;2023-05-10T08:50:52;95536.19;;;12.78;68.28
77702;BME280;66868;42.708;23.404;2023-05-10T08:53:19;95542.72;;;12.82;69.29
77702;BME280;66868;42.708;23.404;2023-05-10T08:55:46;95516.06;;;12.75;69.26
77702;BME280;66868;42.708;23.404;2023-05-10T08:58:12;95519.16;;;12.80;69.05
77702;BME280;66868;42.708;23.404;2023-05-10T09:00:37;95531.19;;;12.91;69.25
77702;BME280;66868;42.708;23.404;2023-05-10T09:03:04;95521.66;;;12.95;70.36
77702;BME280;66868;42.708;23.404;2023-05-10T09:05:30;95538.91;;;13.04;69.51
77702;BME280;66868;42.708;23.404;2023-05-10T09:07:55;95524.63;;;13.01;69.90
77702;BME280;66868;42.708;23.404;2023-05-10T09:10:21;95511.31;;;12.98;68.80
77702;BME280;66868;42.708;23.404;2023-05-10T09:12:48;95535.63;;;13.16;69.48
77702;BME280;66868;42.708;23.404;2023-05-10T09:15:15;95531.34;;;13.16;69.77
77702;BME280;66868;42.708;23.404;2023-05-10T09:17:42;95533.97;;;13.15;69.58
77702;BME280;66868;42.708;23.404;2023-05-10T09:20:09;95534.50;;;13.20;69.60
77702;BME280;66868;42.708;23.404;2023-05-10T09:22:35;95529.13;;;13.24;68.80
77702;BME280;66868;42.708;23.404;2023-05-10T09:25:27;95525.13;;;13.35;67.61
77702;BME280;66868;42.708;23.404;2023-05-10T09:27:52;95517.97;;;13.27;66.50
77702;BME280;66868;42.708;23.404;2023-05-10T09:30:26;95514.38;;;13.17;66.78
77702;BME280;66868;42.708;23.404;2023-05-10T09:32:52;95522.41;;;13.23;66.99
77702;BME280;66868;42.708;23.404;2023-05-10T09:35:20;95526.50;;;13.26;67.06
77702;BME280;66868;42.708;23.404;2023-05-10T09:37:49;95523.25;;;13.24;66.51
77702;BME280;66868;42.708;23.404;2023-05-10T09:40:20;95517.63;;;13.19;66.69
77702;BME280;66868;42.708;23.404;2023-05-10T09:45:25;95517.19;;;13.39;67.16
77702;BME280;66868;42.708;23.404;2023-05-10T09:47:51;95515.56;;;13.38;65.09
77702;BME280;66868;42.708;23.404;2023-05-10T09:50:17;95526.06;;;13.46;65.41
77702;BME280;66868;42.708;23.404;2023-05-10T09:52:53;95520.91;;;13.60;66.18
77702;BME280;66868;42.708;23.404;2023-05-10T09:55:21;95515.44;;;13.66;65.82
77702;BME280;66868;42.708;23.404;2023-05-10T09:57:47;95517.41;;;13.76;65.60
77702;BME280;66868;42.708;23.404;2023-05-10T10:00:18;95509.38;;;13.82;65.74
77702;BME280;66868;42.708;23.404;2023-05-10T10:02:46;95465.28;;;13.68;65.64
77702;BME280;66868;42.708;23.404;2023-05-10T10:05:11;95512.53;;;13.98;64.15
77702;BME280;66868;42.708;23.404;2023-05-10T10:07:37;95505.94;;;13.95;63.45
77702;BME280;66868;42.708;23.404;2023-05-10T10:10:02;95508.25;;;14.11;64.14
77702;BME280;66868;42.708;23.404;2023-05-10T10:12:30;95455.41;;;13.89;63.99
77702;BME280;66868;42.708;23.404;2023-05-10T10:14:56;95494.22;;;14.18;63.83
77702;BME280;66868;42.708;23.404;2023-05-10T10:17:21;95499.00;;;14.23;63.28
77702;BME280;66868;42.708;23.404;2023-05-10T10:19:49;95495.94;;;14.30;63.55
77702;BME280;66868;42.708;23.404;2023-05-10T10:22:14;95490.53;;;14.35;63.69
77702;BME280;66868;42.708;23.404;2023-05-10T10:24:40;95445.88;;;14.05;63.01
77702;BME280;66868;42.708;23.404;2023-05-10T10:27:21;95451.75;;;14.06;62.25
77702;BME280;66868;42.708;23.404;2023-05-10T10:30:10;95475.81;;;14.14;63.29
77702;BME280;66868;42.708;23.404;2023-05-10T10:32:51;95464.69;;;14.03;63.46
77702;BME280;66868;42.708;23.404;2023-05-10T10:35:25;95485.06;;;14.03;62.96
77702;BME280;66868;42.708;23.404;2023-05-10T10:37:51;95490.53;;;13.97;63.56
77702;BME280;66868;42.708;23.404;2023-05-10T10:42:53;95498.59;;;13.91;63.31
77702;BME280;66868;42.708;23.404;2023-05-10T10:45:19;95480.66;;;13.80;63.96
77702;BME280;66868;42.708;23.404;2023-05-10T10:47:46;95494.81;;;13.84;63.75
77702;BME280;66868;42.708;23.404;2023-05-10T10:50:11;95487.00;;;13.87;63.78
77702;BME280;66868;42.708;23.404;2023-05-10T10:52:45;95466.19;;;13.80;63.70
77702;BME280;66868;42.708;23.404;2023-05-10T10:55:17;95488.41;;;14.03;63.51
77702;BME280;66868;42.708;23.404;2023-05-10T10:57:54;95492.38;;;14.07;63.26
77702;BME280;66868;42.708;23.404;2023-05-10T11:02:57;95476.81;;;13.99;63.50
77702;BME280;66868;42.708;23.404;2023-05-10T11:07:55;95499.03;;;14.10;63.17
77702;BME280;66868;42.708;23.404;2023-05-10T11:10:21;95492.47;;;14.06;63.19
77702;BME280;66868;42.708;23.404;2023-05-10T11:13:04;95476.38;;;13.93;63.24
77702;BME280;66868;42.708;23.404;2023-05-10T11:15:35;95495.31;;;14.01;63.32
77702;BME280;66868;42.708;23.404;2023-05-10T11:20:55;95483.13;;;13.94;63.03
77702;BME280;66868;42.708;23.404;2023-05-10T11:23:21;95477.81;;;13.84;63.71
77702;BME280;66868;42.708;23.404;2023-05-10T11:25:48;95485.75;;;13.80;63.50
77702;BME280;66868;42.708;23.404;2023-05-10T11:28:14;95439.59;;;13.46;64.22
77702;BME280;66868;42.708;23.404;2023-05-10T11:30:43;95492.69;;;13.78;63.93
77702;BME280;66868;42.708;23.404;2023-05-10T11:33:11;95497.13;;;13.74;63.98
77702;BME280;66868;42.708;23.404;2023-05-10T11:35:40;95493.06;;;13.71;64.03
77702;BME280;66868;42.708;23.404;2023-05-10T11:38:10;95483.28;;;13.65;64.59
77702;BME280;66868;42.708;23.404;2023-05-10T11:40:36;95490.44;;;13.73;64.77
77702;BME280;66868;42.708;23.404;2023-05-10T11:43:05;95490.75;;;13.81;64.12
77702;BME280;66868;42.708;23.404;2023-05-10T11:45:35;95493.69;;;13.88;63.91
77702;BME280;66868;42.708;23.404;2023-05-10T11:48:02;95492.16;;;13.98;64.28
77702;BME280;66868;42.708;23.404;2023-05-10T11:50:30;95482.50;;;14.03;63.99
77702;BME280;66868;42.708;23.404;2023-05-10T11:52:56;95484.13;;;14.04;62.89
77702;BME280;66868;42.708;23.404;2023-05-10T11:55:22;95478.13;;;13.92;63.70
77702;BME280;66868;42.708;23.404;2023-05-10T11:57:53;95415.91;;;13.58;64.08
77702;BME280;66868;42.708;23.404;2023-05-10T12:00:22;95485.34;;;14.11;64.69
77702;BME280;66868;42.708;23.404;2023-05-10T12:02:48;95490.88;;;14.18;64.93
77702;BME280;66868;42.708;23.404;2023-05-10T12:05:16;95486.28;;;14.23;63.59
77702;BME280;66868;42.708;23.404;2023-05-10T12:07:42;95479.97;;;14.28;63.27
77702;BME280;66868;42.708;23.404;2023-05-10T12:10:09;95482.91;;;14.35;63.70
77702;BME280;66868;42.708;23.404;2023-05-10T12:12:39;95451.63;;;14.20;62.93
77702;BME280;66868;42.708;23.404;2023-05-10T12:15:11;95464.69;;;14.28;62.98
77702;BME280;66868;42.708;23.404;2023-05-10T12:17:38;95466.72;;;14.23;63.80
77702;BME280;66868;42.708;23.404;2023-05-10T12:20:18;95471.81;;;14.23;63.73
77702;BME280;66868;42.708;23.404;2023-05-10T12:22:55;95478.25;;;14.29;64.29
77702;BME280;66868;42.708;23.404;2023-05-10T12:25:23;95469.56;;;14.31;62.94
77702;BME280;66868;42.708;23.404;2023-05-10T12:27:54;95480.88;;;14.27;62.89
77702;BME280;66868;42.708;23.404;2023-05-10T12:30:24;95477.81;;;14.22;63.66
77702;BME280;66868;42.708;23.404;2023-05-10T12:32:50;95458.69;;;14.04;63.86
77702;BME280;66868;42.708;23.404;2023-05-10T12:35:16;95442.50;;;14.05;63.69
77702;BME280;66868;42.708;23.404;2023-05-10T12:37:43;95460.09;;;14.21;63.44
77702;BME280;66868;42.708;23.404;2023-05-10T12:40:09;95462.66;;;14.08;63.50
77702;BME280;66868;42.708;23.404;2023-05-10T12:42:36;95445.97;;;13.91;64.45
77702;BME280;66868;42.708;23.404;2023-05-10T12:45:03;95457.78;;;14.05;64.46
77702;BME280;66868;42.708;23.404;2023-05-10T12:47:29;95455.63;;;13.99;64.25
77702;BME280;66868;42.708;23.404;2023-05-10T12:49:55;95461.13;;;13.93;64.19
77702;BME280;66868;42.708;23.404;2023-05-10T12:52:20;95433.34;;;13.77;64.41
77702;BME280;66868;42.708;23.404;2023-05-10T12:54:46;95454.59;;;13.89;64.97
77702;BME280;66868;42.708;23.404;2023-05-10T12:57:12;95453.19;;;13.85;64.92
77702;BME280;66868;42.708;23.404;2023-05-10T12:59:40;95448.47;;;13.79;64.68
77702;BME280;66868;42.708;23.404;2023-05-10T13:02:06;95451.53;;;13.84;64.36
77702;BME280;66868;42.708;23.404;2023-05-10T13:04:31;95434.63;;;13.83;64.46
77702;BME280;66868;42.708;23.404;2023-05-10T13:06:57;95438.50;;;13.88;64.34
77702;BME280;66868;42.708;23.404;2023-05-10T13:09:27;95433.41;;;13.88;64.40
77702;BME280;66868;42.708;23.404;2023-05-10T13:11:54;95412.84;;;13.79;63.98
77702;BME280;66868;42.708;23.404;2023-05-10T13:14:20;95424.97;;;13.88;64.38
77702;BME280;66868;42.708;23.404;2023-05-10T13:16:46;95413.97;;;13.87;64.53
77702;BME280;66868;42.708;23.404;2023-05-10T13:19:13;95427.53;;;14.00;66.23